< < Back
Terminal Aerodrome Forecast


Current Version              Previous Versions:   1  2  3  4  5  6  7  8  9  

Terminal Aerodrome Forecast

656
FTUS42 KGSP 291735
TAFHKY
TAF
KHKY 291735Z 2918/3018 35006KT P6SM VCSH OVC070
     FM300300 02004KT P6SM OVC070 PROB30 3006/3010 4SM -SHRA OVC025=



Latest METAR

365
SAUS70 KWBC 291900 RRA
MTRHKY
METAR KHKY 291853Z AUTO VRB05KT 10SM OVC060 22/16 A3012 RMK AO2 SLP179
T02220156


USA.gov is the U.S. government's official web portal to all federal, state and local government web resources and services.